Time;durP1;ratioP1;P1;durP2;ratioP2;P2;SDS_P1;SDS_P2;PMS_P1;PMS_P2;Temp;Humidity;BMP_temperature;BMP_pressure;BME280_temperature;BME280_humidity;BME280_pressure;Samples;Min_cycle;Max_cycle;Signal;HPM_P1;HPM_P2
2024/01/14 00:00:32;;;;;;;12.80;4.53;;;4.60;99.90;;;;;;5111959;28;20200;-63
2024/01/14 00:03:01;;;;;;;10.53;4.20;;;4.50;99.90;;;;;;5112201;28;20231;-66
2024/01/14 00:05:32;;;;;;;7.90;3.30;;;4.50;99.90;;;;;;5112207;28;20219;-65
2024/01/14 00:08:03;;;;;;;7.83;3.93;;;4.40;99.90;;;;;;5111783;28;20211;-65
2024/01/14 00:10:32;;;;;;;4.57;2.73;;;4.50;99.90;;;;;;5111650;28;20248;-66
2024/01/14 00:13:00;;;;;;;11.13;4.27;;;4.40;99.90;;;;;;5112638;28;20732;-65
2024/01/14 00:15:28;;;;;;;8.70;3.53;;;4.40;99.90;;;;;;5112086;28;20241;-65
2024/01/14 00:17:59;;;;;;;8.67;3.27;;;4.40;99.90;;;;;;5112177;28;20673;-65
2024/01/14 00:20:32;;;;;;;9.43;3.33;;;4.30;99.90;;;;;;5093591;28;20241;-66
2024/01/14 00:23:00;;;;;;;5.93;3.20;;;4.40;99.90;;;;;;5112101;28;20675;-67
2024/01/14 00:25:29;;;;;;;4.57;3.07;;;4.40;99.90;;;;;;5111521;28;20199;-67
2024/01/14 00:27:58;;;;;;;6.10;2.77;;;4.40;99.90;;;;;;5112126;28;20244;-64
2024/01/14 00:30:26;;;;;;;6.83;3.47;;;4.30;99.90;;;;;;5094529;28;20287;-65
2024/01/14 00:32:54;;;;;;;16.40;9.10;;;4.20;99.90;;;;;;5111986;28;20209;-65
2024/01/14 00:35:23;;;;;;;6.10;3.20;;;4.30;99.90;;;;;;5112148;28;20219;-64
2024/01/14 00:37:54;;;;;;;3.23;2.73;;;4.30;99.90;;;;;;5112198;28;20192;-66
2024/01/14 00:40:22;;;;;;;4.60;2.37;;;4.20;99.90;;;;;;5111970;27;20190;-66
2024/01/14 00:42:51;;;;;;;4.13;2.77;;;4.20;99.90;;;;;;5112090;28;20200;-66
2024/01/14 00:45:19;;;;;;;5.43;2.53;;;4.20;99.90;;;;;;5112201;28;20886;-66
2024/01/14 00:47:47;;;;;;;6.93;2.70;;;4.20;99.90;;;;;;5111946;28;20188;-65
2024/01/14 00:50:16;;;;;;;6.50;2.97;;;4.30;99.90;;;;;;5111667;28;20298;-66
2024/01/14 00:52:44;;;;;;;6.57;3.07;;;4.40;99.90;;;;;;5111806;28;20191;-66
2024/01/14 00:55:14;;;;;;;5.83;2.90;;;4.40;99.90;;;;;;5111397;28;20204;-67
2024/01/14 00:57:51;;;;;;;3.53;2.50;;;4.30;99.90;;;;;;5111649;28;20191;-65
2024/01/14 01:00:20;;;;;;;4.40;2.80;;;4.20;99.90;;;;;;5111358;28;20200;-66
2024/01/14 01:02:54;;;;;;;6.93;2.73;;;4.40;99.90;;;;;;5111234;28;20785;-66
2024/01/14 01:05:26;;;;;;;5.33;2.70;;;4.40;99.90;;;;;;5110312;28;20624;-66
2024/01/14 01:07:55;;;;;;;4.33;2.97;;;4.30;99.90;;;;;;5111311;28;20257;-66
2024/01/14 01:10:25;;;;;;;9.10;4.40;;;4.40;99.90;;;;;;5092912;28;20265;-66
2024/01/14 01:12:53;;;;;;;5.10;2.83;;;4.40;99.90;;;;;;5111133;28;20187;-67
2024/01/14 01:15:22;;;;;;;6.10;2.50;;;4.40;99.90;;;;;;5111121;28;20196;-66
2024/01/14 01:17:50;;;;;;;7.23;2.50;;;4.40;99.90;;;;;;5092881;28;20199;-66
2024/01/14 01:20:18;;;;;;;4.33;2.30;;;4.30;99.90;;;;;;5111206;28;20727;-66
2024/01/14 01:22:48;;;;;;;2.83;2.27;;;4.20;99.90;;;;;;5111063;28;20888;-66
2024/01/14 01:25:17;;;;;;;4.73;2.67;;;4.20;99.90;;;;;;5110932;28;20207;-66
2024/01/14 01:27:46;;;;;;;4.40;2.30;;;4.20;99.90;;;;;;5110954;28;20661;-66
2024/01/14 01:30:15;;;;;;;5.10;2.27;;;4.20;99.90;;;;;;5111338;28;20206;-66
2024/01/14 01:32:43;;;;;;;4.83;2.70;;;4.10;99.90;;;;;;5111062;28;20679;-66
2024/01/14 01:35:13;;;;;;;3.80;2.47;;;4.20;99.90;;;;;;5110977;28;20565;-66
2024/01/14 01:37:42;;;;;;;4.27;2.43;;;4.20;99.90;;;;;;5110588;28;20318;-66
2024/01/14 01:40:10;;;;;;;5.87;2.50;;;4.20;99.90;;;;;;5110573;28;20549;-65
2024/01/14 01:42:39;;;;;;;3.60;2.20;;;4.20;99.90;;;;;;5110832;28;20597;-65
2024/01/14 01:45:10;;;;;;;4.27;2.60;;;4.30;99.90;;;;;;5110600;28;20188;-66
2024/01/14 01:47:39;;;;;;;7.43;3.03;;;4.30;99.90;;;;;;5110808;28;20610;-65
2024/01/14 01:50:08;;;;;;;5.20;2.50;;;4.50;99.90;;;;;;5110467;28;20223;-65
2024/01/14 01:52:38;;;;;;;5.57;2.47;;;4.50;99.90;;;;;;5110713;28;20499;-65
2024/01/14 01:55:07;;;;;;;8.10;2.97;;;4.50;99.90;;;;;;5110627;28;20192;-65
2024/01/14 01:57:35;;;;;;;5.67;2.60;;;4.60;99.90;;;;;;5091301;28;20232;-65
2024/01/14 02:00:05;;;;;;;5.63;2.47;;;4.50;99.90;;;;;;5110728;28;20201;-64
2024/01/14 02:02:41;;;;;;;4.57;2.83;;;4.50;99.90;;;;;;5110083;28;20651;-65
2024/01/14 02:05:10;;;;;;;3.67;2.37;;;4.30;99.90;;;;;;5110694;28;20208;-65
2024/01/14 02:07:40;;;;;;;6.77;3.00;;;4.40;99.90;;;;;;5110407;28;20176;-65
2024/01/14 02:10:09;;;;;;;7.67;3.10;;;4.50;99.90;;;;;;5110281;28;20825;-65
2024/01/14 02:12:40;;;;;;;5.27;2.67;;;4.50;99.90;;;;;;5110080;28;20192;-65
2024/01/14 02:15:10;;;;;;;6.07;3.07;;;4.50;99.90;;;;;;5089893;28;20294;-65
2024/01/14 02:17:40;;;;;;;6.53;3.07;;;4.60;99.90;;;;;;5109798;28;20222;-64
2024/01/14 02:20:10;;;;;;;8.23;3.30;;;4.60;99.90;;;;;;5109879;28;20284;-65
2024/01/14 02:22:41;;;;;;;5.83;2.57;;;4.60;99.90;;;;;;5109731;28;20200;-65
2024/01/14 02:25:11;;;;;;;11.00;2.70;;;4.70;99.90;;;;;;5109749;28;20204;-65
2024/01/14 02:27:39;;;;;;;3.03;2.17;;;4.80;99.90;;;;;;5109670;28;20188;-64
2024/01/14 02:30:10;;;;;;;3.07;2.50;;;4.70;99.90;;;;;;5109689;28;20718;-64
2024/01/14 02:32:42;;;;;;;4.37;2.50;;;4.50;99.90;;;;;;5109658;28;20317;-66
2024/01/14 02:35:11;;;;;;;7.27;2.70;;;4.50;99.90;;;;;;5109822;28;20196;-66
2024/01/14 02:37:47;;;;;;;5.43;2.30;;;4.50;99.90;;;;;;5109604;28;20207;-66
2024/01/14 02:40:17;;;;;;;2.70;2.00;;;4.50;99.90;;;;;;5109315;28;20202;-68
2024/01/14 02:42:50;;;;;;;2.37;2.17;;;4.60;99.90;;;;;;5109486;28;20226;-67
2024/01/14 02:45:20;;;;;;;4.07;2.40;;;4.60;99.90;;;;;;5109349;28;20209;-67
2024/01/14 02:47:49;;;;;;;5.13;2.30;;;4.50;99.90;;;;;;5109763;28;20315;-66
2024/01/14 02:50:18;;;;;;;4.83;2.50;;;4.50;99.90;;;;;;5109501;28;20216;-66
2024/01/14 02:52:53;;;;;;;3.53;2.07;;;4.50;99.90;;;;;;5109582;28;20204;-65
2024/01/14 02:55:24;;;;;;;4.23;2.70;;;4.40;99.90;;;;;;5109163;28;20572;-66
2024/01/14 02:57:54;;;;;;;2.37;2.17;;;4.50;99.90;;;;;;5091125;28;20243;-66
2024/01/14 03:00:22;;;;;;;3.17;2.37;;;4.40;99.90;;;;;;5109474;28;20199;-66
2024/01/14 03:02:54;;;;;;;2.87;2.20;;;4.50;99.90;;;;;;5109212;28;20255;-66
2024/01/14 03:05:22;;;;;;;4.97;2.50;;;4.60;99.90;;;;;;5109255;28;20202;-66
2024/01/14 03:07:51;;;;;;;3.13;2.63;;;4.50;99.90;;;;;;5109433;28;20191;-66
2024/01/14 03:10:20;;;;;;;4.37;2.70;;;4.50;99.90;;;;;;5109020;28;20198;-66
2024/01/14 03:12:50;;;;;;;6.00;2.13;;;4.50;99.90;;;;;;5109001;28;20192;-67
2024/01/14 03:15:18;;;;;;;3.73;2.20;;;4.60;99.90;;;;;;5109418;28;20195;-67
2024/01/14 03:17:46;;;;;;;2.83;2.37;;;4.50;99.90;;;;;;5108896;28;20242;-67
2024/01/14 03:20:15;;;;;;;7.70;2.17;;;4.50;99.90;;;;;;5109091;28;20195;-68
2024/01/14 03:22:43;;;;;;;2.53;2.13;;;4.40;99.90;;;;;;5109340;28;20525;-66
2024/01/14 03:25:11;;;;;;;2.40;2.20;;;4.30;99.90;;;;;;5108562;28;20199;-67
2024/01/14 03:27:39;;;;;;;2.70;2.50;;;4.20;99.90;;;;;;5108429;28;20637;-67
2024/01/14 03:30:10;;;;;;;4.13;2.30;;;4.30;99.90;;;;;;5108936;28;20286;-68
2024/01/14 03:32:39;;;;;;;4.07;2.30;;;4.30;99.90;;;;;;5108458;28;20264;-66
2024/01/14 03:35:07;;;;;;;5.23;2.53;;;4.40;99.90;;;;;;5108716;28;20192;-67
2024/01/14 03:37:36;;;;;;;3.27;2.50;;;4.40;99.90;;;;;;5108754;28;20259;-66
2024/01/14 03:40:07;;;;;;;4.23;2.37;;;4.30;99.90;;;;;;5108725;28;20205;-66
2024/01/14 03:42:36;;;;;;;4.53;2.30;;;4.30;99.90;;;;;;5108321;28;20202;-67
2024/01/14 03:45:06;;;;;;;3.30;2.30;;;4.20;99.90;;;;;;5108653;28;20715;-65
2024/01/14 03:47:37;;;;;;;5.67;2.70;;;4.10;99.90;;;;;;5108745;28;20633;-65
2024/01/14 03:50:06;;;;;;;5.77;2.57;;;4.30;99.90;;;;;;5108517;28;20200;-64
2024/01/14 03:52:34;;;;;;;3.30;2.70;;;4.40;99.90;;;;;;5108438;28;20248;-65
2024/01/14 03:55:03;;;;;;;4.63;2.43;;;4.40;99.90;;;;;;5108637;28;20206;-65
2024/01/14 03:57:31;;;;;;;2.53;2.30;;;4.40;99.90;;;;;;5108503;28;20216;-64
2024/01/14 04:00:00;;;;;;;3.17;2.50;;;4.50;99.90;;;;;;5108765;28;20192;-65
2024/01/14 04:02:32;;;;;;;3.87;2.10;;;4.60;99.90;;;;;;5108102;28;20227;-66
2024/01/14 04:05:03;;;;;;;3.27;2.27;;;4.60;99.90;;;;;;5108564;28;20200;-66
2024/01/14 04:07:31;;;;;;;7.70;2.67;;;4.60;99.90;;;;;;5108678;28;20209;-66
2024/01/14 04:09:59;;;;;;;3.93;2.40;;;4.50;99.90;;;;;;5108240;28;20202;-65
2024/01/14 04:12:28;;;;;;;3.37;1.90;;;4.30;99.90;;;;;;5108320;28;20196;-65
2024/01/14 04:14:56;;;;;;;4.40;1.83;;;4.20;99.90;;;;;;5108532;28;20192;-65
2024/01/14 04:17:24;;;;;;;2.40;2.00;;;4.20;99.90;;;;;;5108346;28;20226;-65
2024/01/14 04:19:53;;;;;;;2.17;1.93;;;4.20;99.90;;;;;;5108536;28;20201;-64
2024/01/14 04:22:23;;;;;;;2.90;2.30;;;4.20;99.90;;;;;;5108481;28;20269;-64
2024/01/14 04:24:51;;;;;;;9.80;2.70;;;4.20;99.90;;;;;;5108347;28;20198;-66
2024/01/14 04:27:35;;;;;;;4.93;2.23;;;4.20;99.90;;;;;;5108487;28;20681;-67
2024/01/14 04:30:07;;;;;;;3.87;2.20;;;4.20;99.90;;;;;;5090189;28;20204;-67
2024/01/14 04:32:36;;;;;;;4.53;2.20;;;4.20;99.90;;;;;;5108461;28;20196;-67
2024/01/14 04:35:11;;;;;;;2.80;2.50;;;4.20;99.90;;;;;;5108301;28;20218;-67
2024/01/14 04:37:41;;;;;;;3.30;2.17;;;4.30;99.90;;;;;;5107866;28;20219;-66
2024/01/14 04:40:10;;;;;;;3.40;2.30;;;4.30;99.90;;;;;;5108457;28;20198;-66
2024/01/14 04:42:38;;;;;;;2.47;2.27;;;4.20;99.90;;;;;;5111017;28;20233;-64
2024/01/14 04:45:08;;;;;;;3.23;2.00;;;4.20;99.90;;;;;;5110746;28;20279;-65
2024/01/14 04:47:40;;;;;;;4.83;2.20;;;4.20;99.90;;;;;;5111080;28;20196;-65
2024/01/14 04:50:14;;;;;;;3.40;2.70;;;4.30;99.90;;;;;;5111074;28;20234;-64
2024/01/14 04:52:44;;;;;;;3.93;2.07;;;4.30;99.90;;;;;;5110783;28;20320;-65
2024/01/14 04:55:15;;;;;;;3.50;2.10;;;4.30;99.90;;;;;;5091960;28;20664;-65
2024/01/14 04:57:43;;;;;;;2.33;2.07;;;4.40;99.90;;;;;;5110362;28;20624;-65
2024/01/14 05:00:15;;;;;;;2.70;2.23;;;4.30;99.90;;;;;;5110600;28;20206;-65
2024/01/14 05:02:47;;;;;;;5.57;2.57;;;4.40;99.90;;;;;;5110709;28;20577;-65
2024/01/14 05:05:15;;;;;;;3.83;2.33;;;4.40;99.90;;;;;;5111297;28;20195;-65
2024/01/14 05:07:46;;;;;;;4.07;2.27;;;4.50;99.90;;;;;;5111563;28;20567;-64
2024/01/14 05:10:15;;;;;;;2.80;2.57;;;4.70;99.90;;;;;;5111470;28;20198;-65
2024/01/14 05:12:43;;;;;;;2.67;2.43;;;4.70;99.90;;;;;;5111562;28;20195;-64
2024/01/14 05:15:11;;;;;;;3.60;2.17;;;4.70;99.90;;;;;;5111337;28;20299;-65
2024/01/14 05:17:40;;;;;;;3.30;2.37;;;4.60;99.90;;;;;;5111224;28;20222;-65
2024/01/14 05:20:10;;;;;;;2.57;2.37;;;4.60;99.90;;;;;;5111226;28;20282;-64
2024/01/14 05:22:38;;;;;;;2.90;2.20;;;4.60;99.90;;;;;;5110984;28;20203;-64
2024/01/14 05:25:08;;;;;;;5.00;2.50;;;4.50;99.90;;;;;;5111314;28;20670;-65
2024/01/14 05:27:36;;;;;;;3.40;2.60;;;4.50;99.90;;;;;;5110691;28;20740;-65
2024/01/14 05:30:05;;;;;;;2.50;2.20;;;4.50;99.90;;;;;;5111121;28;20202;-65
2024/01/14 05:32:34;;;;;;;3.80;2.90;;;4.40;99.90;;;;;;5110851;28;20192;-64
2024/01/14 05:35:02;;;;;;;6.70;2.77;;;4.50;99.90;;;;;;5110959;28;20204;-64
2024/01/14 05:37:31;;;;;;;6.23;3.00;;;4.50;99.90;;;;;;5110827;28;20196;-65
2024/01/14 05:39:59;;;;;;;11.33;3.03;;;4.40;99.90;;;;;;5110506;28;20254;-65
2024/01/14 05:42:29;;;;;;;5.27;3.00;;;4.40;99.90;;;;;;5110673;28;20195;-64
2024/01/14 05:44:58;;;;;;;6.27;2.80;;;4.40;99.90;;;;;;5110682;28;20211;-65
2024/01/14 05:47:26;;;;;;;6.13;3.00;;;4.50;99.90;;;;;;5110599;28;20207;-64
2024/01/14 05:49:54;;;;;;;5.20;3.10;;;4.40;99.90;;;;;;5110651;28;20672;-65
2024/01/14 05:52:23;;;;;;;8.50;2.93;;;4.50;99.90;;;;;;5110230;28;20227;-65
2024/01/14 05:54:51;;;;;;;3.50;2.37;;;4.50;99.90;;;;;;5110570;28;20237;-65
2024/01/14 05:57:19;;;;;;;3.90;2.50;;;4.50;99.90;;;;;;5110133;28;20673;-66
2024/01/14 05:59:49;;;;;;;5.80;2.67;;;4.50;99.90;;;;;;5110348;28;20224;-66
2024/01/14 06:02:18;;;;;;;5.77;2.83;;;4.50;99.90;;;;;;5110052;28;20810;-66
2024/01/14 06:04:46;;;;;;;2.87;2.43;;;4.60;99.90;;;;;;5110163;28;20748;-65
2024/01/14 06:07:14;;;;;;;3.10;2.57;;;4.50;99.90;;;;;;5110115;28;20220;-65
2024/01/14 06:09:43;;;;;;;3.60;2.40;;;4.60;99.90;;;;;;5110226;28;20300;-65
2024/01/14 06:12:11;;;;;;;6.10;2.57;;;4.80;99.90;;;;;;5109858;28;20969;-66
2024/01/14 06:14:39;;;;;;;5.97;2.90;;;4.80;99.90;;;;;;5110061;28;20202;-66
2024/01/14 06:17:09;;;;;;;7.07;3.43;;;4.70;99.90;;;;;;5110170;28;20196;-66
2024/01/14 06:19:38;;;;;;;5.97;3.00;;;4.50;99.90;;;;;;5109862;28;20215;-66
2024/01/14 06:22:07;;;;;;;5.40;3.17;;;4.60;99.90;;;;;;5109879;28;20191;-66
2024/01/14 06:24:35;;;;;;;12.37;4.60;;;4.70;99.90;;;;;;5110217;28;20205;-66
2024/01/14 06:27:04;;;;;;;8.73;3.60;;;4.70;99.90;;;;;;5109713;28;20198;-66
2024/01/14 06:29:32;;;;;;;12.63;3.57;;;4.70;99.90;;;;;;5091461;28;20199;-66
2024/01/14 06:32:00;;;;;;;7.13;3.57;;;4.70;99.90;;;;;;5109410;28;20283;-66
2024/01/14 06:34:30;;;;;;;10.27;3.70;;;4.70;99.90;;;;;;5109754;28;20204;-66
2024/01/14 06:37:01;;;;;;;9.33;4.20;;;4.70;99.90;;;;;;5109458;28;20199;-65
2024/01/14 06:39:29;;;;;;;12.27;4.30;;;4.70;99.90;;;;;;5109606;28;20223;-66
2024/01/14 06:41:58;;;;;;;9.87;4.60;;;4.70;99.90;;;;;;5109577;28;20196;-65
2024/01/14 06:44:26;;;;;;;7.23;3.87;;;4.70;99.90;;;;;;5109775;28;20192;-65
2024/01/14 06:46:56;;;;;;;14.70;4.37;;;4.70;99.90;;;;;;5101022;28;20576;-65
2024/01/14 06:49:29;;;;;;;8.90;4.00;;;4.50;99.90;;;;;;5109632;28;20700;-65
2024/01/14 06:52:03;;;;;;;11.90;4.67;;;4.60;99.90;;;;;;5109096;28;20203;-65
2024/01/14 06:54:31;;;;;;;13.53;4.30;;;4.60;99.90;;;;;;5109062;28;20199;-65
2024/01/14 06:56:59;;;;;;;10.87;4.50;;;4.60;99.90;;;;;;5109059;28;20196;-65
2024/01/14 06:59:28;;;;;;;9.23;4.67;;;4.60;99.90;;;;;;5109183;28;20290;-65
2024/01/14 07:01:58;;;;;;;15.33;4.07;;;4.70;99.90;;;;;;5108270;28;20191;-65
2024/01/14 07:07:45;;;;;;;9.63;4.47;;;4.60;99.90;;;;;;5109065;28;20192;-65
2024/01/14 07:10:14;;;;;;;9.97;4.00;;;4.70;99.90;;;;;;5109188;28;20218;-64
2024/01/14 07:12:42;;;;;;;12.23;4.07;;;4.70;99.90;;;;;;5108683;28;20274;-64
2024/01/14 07:15:12;;;;;;;11.00;4.50;;;4.70;99.90;;;;;;5108952;28;20210;-65
2024/01/14 07:17:40;;;;;;;11.07;4.30;;;4.60;99.90;;;;;;5108989;28;20222;-65
2024/01/14 07:20:20;;;;;;;7.10;4.27;;;4.70;99.90;;;;;;5108883;28;20223;-65
2024/01/14 07:22:49;;;;;;;10.03;4.60;;;4.80;99.90;;;;;;5108824;28;20619;-64
2024/01/14 07:25:18;;;;;;;6.40;4.10;;;4.80;99.90;;;;;;5109285;28;20203;-64
2024/01/14 07:27:47;;;;;;;8.23;4.23;;;4.80;99.90;;;;;;5108715;28;20192;-64
2024/01/14 07:30:18;;;;;;;9.57;4.10;;;4.70;99.90;;;;;;5108927;28;20224;-64
2024/01/14 07:32:46;;;;;;;11.57;3.93;;;4.60;99.90;;;;;;5108718;28;20723;-65
2024/01/14 07:35:14;;;;;;;10.50;3.90;;;4.60;99.90;;;;;;5108656;28;20200;-64
2024/01/14 07:37:43;;;;;;;10.70;4.87;;;4.60;99.90;;;;;;5108837;28;20214;-65
2024/01/14 07:40:27;;;;;;;8.13;4.33;;;4.60;99.90;;;;;;5108589;28;20269;-65
2024/01/14 07:43:14;;;;;;;6.60;3.83;;;4.60;99.90;;;;;;5108366;28;20985;-65
2024/01/14 07:45:42;;;;;;;7.27;3.73;;;4.60;99.90;;;;;;5108501;28;20624;-65
2024/01/14 07:48:15;;;;;;;9.33;3.53;;;4.50;99.90;;;;;;5108395;28;20275;-65
2024/01/14 07:50:49;;;;;;;12.37;4.17;;;4.50;99.90;;;;;;5108872;28;20201;-65
2024/01/14 07:53:18;;;;;;;11.20;4.10;;;4.40;99.90;;;;;;5108653;28;20223;-64
2024/01/14 07:55:47;;;;;;;10.13;4.13;;;4.40;99.90;;;;;;5108671;28;20631;-65
2024/01/14 07:58:19;;;;;;;8.57;3.73;;;4.30;99.90;;;;;;5108393;28;20199;-65
2024/01/14 08:00:47;;;;;;;12.37;4.27;;;4.30;99.90;;;;;;5108553;28;20225;-65
2024/01/14 08:03:21;;;;;;;8.93;4.83;;;4.40;99.90;;;;;;5108166;28;20230;-65
2024/01/14 08:05:50;;;;;;;12.00;4.30;;;4.40;99.90;;;;;;5108598;28;20256;-64
2024/01/14 08:08:27;;;;;;;13.83;4.10;;;4.40;99.90;;;;;;5107591;28;20207;-65
2024/01/14 08:10:59;;;;;;;9.83;4.30;;;4.50;99.90;;;;;;5108394;28;20664;-65
2024/01/14 08:13:28;;;;;;;11.97;4.20;;;4.60;99.90;;;;;;5108129;28;20203;-64
2024/01/14 08:15:56;;;;;;;9.57;4.17;;;4.60;99.90;;;;;;5112310;28;20700;-64
2024/01/14 08:18:28;;;;;;;11.13;4.47;;;4.50;99.90;;;;;;5112416;28;20309;-64
2024/01/14 08:20:57;;;;;;;13.30;4.10;;;4.50;99.90;;;;;;5093691;28;20595;-64
2024/01/14 08:23:25;;;;;;;11.70;4.50;;;4.40;99.90;;;;;;5112054;28;20251;-64
2024/01/14 08:25:53;;;;;;;9.13;4.10;;;4.40;99.90;;;;;;5112162;28;20214;-65
2024/01/14 08:28:24;;;;;;;10.30;3.97;;;4.40;99.90;;;;;;5093327;28;20208;-65
2024/01/14 08:30:52;;;;;;;8.90;4.13;;;4.40;99.90;;;;;;5111702;28;20230;-65
2024/01/14 08:33:21;;;;;;;14.37;4.63;;;4.40;99.90;;;;;;5111953;28;20198;-65
2024/01/14 08:35:49;;;;;;;11.90;4.40;;;4.50;99.90;;;;;;5112101;28;20948;-65
2024/01/14 08:38:18;;;;;;;10.33;3.90;;;4.40;99.90;;;;;;5112016;28;20257;-65
2024/01/14 08:41:16;;;;;;;7.10;3.93;;;4.40;99.90;;;;;;5110704;28;20699;-65
2024/01/14 08:43:56;;;;;;;8.17;3.80;;;4.50;99.90;;;;;;5111772;28;20635;-65
2024/01/14 08:46:24;;;;;;;12.03;3.37;;;4.60;99.90;;;;;;5111753;28;20606;-65
2024/01/14 08:48:56;;;;;;;11.37;4.23;;;4.60;99.90;;;;;;5111726;28;20684;-65
2024/01/14 08:51:27;;;;;;;10.10;4.10;;;4.70;99.90;;;;;;5111615;28;20199;-65
2024/01/14 08:54:00;;;;;;;12.23;4.77;;;4.70;99.90;;;;;;5111720;28;20639;-65
2024/01/14 08:56:32;;;;;;;11.60;4.47;;;4.60;99.90;;;;;;5111755;28;20184;-65
2024/01/14 08:59:01;;;;;;;9.03;3.80;;;4.60;99.90;;;;;;5111500;28;20183;-65
2024/01/14 09:01:30;;;;;;;11.53;5.67;;;4.70;99.90;;;;;;5111837;28;20282;-65
2024/01/14 09:03:58;;;;;;;15.63;5.63;;;4.70;99.90;;;;;;5111346;28;20777;-65
2024/01/14 09:06:30;;;;;;;11.87;4.37;;;4.70;99.90;;;;;;5111408;28;20681;-65
2024/01/14 09:08:58;;;;;;;11.33;4.70;;;4.80;99.90;;;;;;5111751;28;20216;-64
2024/01/14 09:11:35;;;;;;;11.77;5.00;;;4.70;99.90;;;;;;5111292;28;20215;-64
2024/01/14 09:14:07;;;;;;;10.40;4.77;;;4.80;99.90;;;;;;5109378;28;20630;-65
2024/01/14 09:16:35;;;;;;;11.10;4.37;;;4.80;99.90;;;;;;5111839;28;20725;-65
2024/01/14 09:19:03;;;;;;;11.40;4.67;;;4.90;99.90;;;;;;5111287;28;20285;-65
2024/01/14 09:21:31;;;;;;;12.17;4.83;;;4.90;99.90;;;;;;5111419;28;20227;-65
2024/01/14 09:24:00;;;;;;;12.33;5.23;;;4.90;99.90;;;;;;5111521;28;20615;-65
2024/01/14 09:26:30;;;;;;;14.23;5.13;;;4.90;99.90;;;;;;5110365;28;20195;-66
2024/01/14 09:29:18;;;;;;;14.70;7.53;;;4.90;99.90;;;;;;5111265;28;20250;-65
2024/01/14 09:31:49;;;;;;;14.90;5.73;;;4.80;99.90;;;;;;5111301;28;20295;-65
2024/01/14 09:34:17;;;;;;;11.63;4.67;;;5.00;99.90;;;;;;5111511;28;20200;-64
2024/01/14 09:36:46;;;;;;;10.03;5.00;;;5.00;99.90;;;;;;5111208;28;20188;-65
2024/01/14 09:39:24;;;;;;;10.93;4.87;;;5.00;99.90;;;;;;5110843;28;20188;-66
2024/01/14 09:42:06;;;;;;;7.77;4.37;;;5.00;99.90;;;;;;5110870;28;20692;-66
2024/01/14 09:44:39;;;;;;;12.43;5.00;;;4.90;99.90;;;;;;5110886;28;20240;-66
2024/01/14 09:47:09;;;;;;;9.80;5.07;;;5.00;99.90;;;;;;5110794;28;20214;-65
2024/01/14 09:49:38;;;;;;;8.70;4.07;;;4.90;99.90;;;;;;5110923;28;20199;-66
2024/01/14 09:52:07;;;;;;;7.40;4.70;;;4.80;99.90;;;;;;5110835;28;20208;-66
2024/01/14 09:54:37;;;;;;;13.97;4.43;;;4.90;99.90;;;;;;5110933;28;20622;-66
2024/01/14 09:57:12;;;;;;;11.27;5.00;;;4.90;99.90;;;;;;5110502;28;20195;-65
2024/01/14 09:59:44;;;;;;;12.27;4.93;;;4.90;99.90;;;;;;5110890;28;20554;-65
2024/01/14 10:02:39;;;;;;;10.93;4.90;;;4.90;99.90;;;;;;5110290;28;20239;-66
2024/01/14 10:05:08;;;;;;;9.93;3.93;;;5.00;99.90;;;;;;5110947;28;20200;-66
2024/01/14 10:07:38;;;;;;;11.23;5.03;;;4.90;99.90;;;;;;5110609;28;20660;-66
2024/01/14 10:10:08;;;;;;;6.83;4.23;;;5.00;99.90;;;;;;5110667;28;20566;-66
2024/01/14 10:12:42;;;;;;;11.40;4.77;;;5.00;99.90;;;;;;5110081;28;20199;-66
2024/01/14 10:15:20;;;;;;;11.20;5.50;;;5.00;99.90;;;;;;5110587;28;20662;-66
2024/01/14 10:17:56;;;;;;;13.33;5.67;;;5.00;99.90;;;;;;5110483;28;20665;-66
2024/01/14 10:20:42;;;;;;;14.47;5.50;;;5.20;99.90;;;;;;5110251;28;20216;-66
2024/01/14 10:23:14;;;;;;;13.07;5.50;;;5.20;99.90;;;;;;5110399;28;20206;-66
2024/01/14 10:25:46;;;;;;;19.13;5.80;;;5.20;99.90;;;;;;5110223;28;20192;-67
2024/01/14 10:28:15;;;;;;;11.23;4.67;;;5.10;99.90;;;;;;5110189;28;20188;-66
2024/01/14 10:30:50;;;;;;;17.77;6.57;;;5.10;99.90;;;;;;5091565;28;20243;-66
2024/01/14 10:33:18;;;;;;;14.93;5.23;;;5.10;99.90;;;;;;5110333;28;20199;-66
2024/01/14 10:35:49;;;;;;;9.23;4.57;;;5.00;99.90;;;;;;5110233;28;20198;-66
2024/01/14 10:38:21;;;;;;;15.07;6.53;;;5.00;99.90;;;;;;5109922;28;20199;-66
2024/01/14 10:40:54;;;;;;;14.27;4.97;;;5.10;99.90;;;;;;5109976;28;20214;-66
2024/01/14 10:43:24;;;;;;;16.17;5.67;;;5.20;99.90;;;;;;5109862;28;20924;-66
2024/01/14 10:45:54;;;;;;;12.70;5.07;;;5.20;99.90;;;;;;5109749;28;20265;-66
2024/01/14 10:48:26;;;;;;;13.20;4.23;;;5.20;99.90;;;;;;5109774;28;20206;-66
2024/01/14 10:50:55;;;;;;;13.00;5.60;;;5.10;99.90;;;;;;5109602;28;20208;-67
2024/01/14 10:53:26;;;;;;;9.13;5.07;;;5.10;99.90;;;;;;5109673;28;20196;-66
2024/01/14 10:56:01;;;;;;;16.03;6.47;;;5.10;99.90;;;;;;5109435;28;20217;-66
2024/01/14 10:58:35;;;;;;;10.90;5.70;;;5.00;99.90;;;;;;5109194;28;20749;-66
2024/01/14 11:01:08;;;;;;;21.23;7.67;;;4.90;99.90;;;;;;5109078;28;20330;-67
2024/01/14 11:03:38;;;;;;;12.73;5.47;;;5.00;99.90;;;;;;5109021;28;20315;-66
2024/01/14 11:06:08;;;;;;;13.33;5.90;;;5.00;99.90;;;;;;5109303;28;20191;-66
2024/01/14 11:08:38;;;;;;;12.77;5.13;;;4.90;99.90;;;;;;5109176;28;20248;-67
2024/01/14 11:11:32;;;;;;;11.93;5.53;;;5.00;99.90;;;;;;5109031;28;20203;-66
2024/01/14 11:14:11;;;;;;;14.20;5.73;;;5.10;99.90;;;;;;5102544;28;20211;-66
2024/01/14 11:16:46;;;;;;;9.90;4.70;;;5.00;99.90;;;;;;5109322;28;20184;-66
2024/01/14 11:19:24;;;;;;;14.40;4.77;;;4.90;99.90;;;;;;5109320;28;20191;-66
2024/01/14 11:22:12;;;;;;;13.37;5.23;;;4.90;99.90;;;;;;5090284;28;20235;-66
2024/01/14 11:25:03;;;;;;;12.33;5.33;;;4.80;99.90;;;;;;5103115;28;20319;-65
2024/01/14 11:27:32;;;;;;;14.13;4.93;;;5.00;99.90;;;;;;5109233;28;20198;-65
2024/01/14 11:30:04;;;;;;;7.90;4.60;;;5.00;99.90;;;;;;5108832;28;20303;-65
2024/01/14 11:32:34;;;;;;;15.80;5.77;;;5.10;99.90;;;;;;5108973;28;20668;-65
2024/01/14 11:35:37;;;;;;;16.23;5.67;;;5.10;99.90;;;;;;5108840;28;20238;-66
2024/01/14 11:38:38;;;;;;;7.00;5.03;;;5.10;99.90;;;;;;5108765;28;20198;-66
2024/01/14 11:41:25;;;;;;;9.30;5.10;;;5.00;99.90;;;;;;5076119;28;20224;-66
2024/01/14 11:43:54;;;;;;;11.83;4.67;;;5.10;99.90;;;;;;5108965;28;20225;-66
2024/01/14 11:46:42;;;;;;;11.43;5.33;;;5.00;99.90;;;;;;5109063;28;20192;-66
2024/01/14 11:49:18;;;;;;;12.27;5.60;;;4.90;99.90;;;;;;5110196;28;20206;-66
2024/01/14 11:51:57;;;;;;;9.57;5.10;;;4.90;99.90;;;;;;5113198;28;20202;-66
2024/01/14 11:54:26;;;;;;;15.20;5.60;;;4.90;99.90;;;;;;5113042;28;20206;-66
2024/01/14 11:56:57;;;;;;;14.00;6.20;;;5.10;99.90;;;;;;5112718;28;20191;-66
2024/01/14 11:59:25;;;;;;;8.70;5.03;;;4.90;99.90;;;;;;5112324;28;20203;-65
2024/01/14 12:02:01;;;;;;;16.13;6.43;;;4.90;99.90;;;;;;5112449;28;20685;-65
2024/01/14 12:04:31;;;;;;;14.57;6.80;;;4.90;99.90;;;;;;5112559;28;20192;-66
2024/01/14 12:07:04;;;;;;;9.73;4.87;;;4.80;99.90;;;;;;5112751;28;20195;-65
2024/01/14 12:09:54;;;;;;;14.87;5.80;;;4.90;99.90;;;;;;5093711;28;20199;-66
2024/01/14 12:12:37;;;;;;;10.70;5.30;;;4.90;99.90;;;;;;5111943;28;20200;-65
2024/01/14 12:15:36;;;;;;;13.27;5.63;;;5.00;99.90;;;;;;5112367;28;20240;-66
2024/01/14 12:18:41;;;;;;;11.67;5.83;;;5.00;99.90;;;;;;5112563;28;20210;-66
2024/01/14 12:21:16;;;;;;;16.60;5.47;;;5.00;99.90;;;;;;5112217;28;20184;-67
2024/01/14 12:23:50;;;;;;;13.40;4.83;;;4.80;99.90;;;;;;5112213;28;20187;-65
2024/01/14 12:26:19;;;;;;;12.43;5.33;;;4.80;99.90;;;;;;5112168;28;20216;-65
2024/01/14 12:28:48;;;;;;;12.37;5.33;;;4.80;99.90;;;;;;5112026;28;20671;-65
2024/01/14 12:31:21;;;;;;;11.03;5.80;;;4.80;99.90;;;;;;5111898;28;20277;-65
2024/01/14 12:34:29;;;;;;;8.73;5.37;;;4.80;99.90;;;;;;5111999;28;20559;-65
2024/01/14 12:37:01;;;;;;;13.63;5.97;;;4.90;99.90;;;;;;5011758;28;20210;-65
2024/01/14 12:39:33;;;;;;;15.63;6.00;;;4.90;99.90;;;;;;5028691;28;20338;-67
2024/01/14 12:42:02;;;;;;;13.20;6.57;;;5.00;99.90;;;;;;5028706;28;20230;-65
2024/01/14 12:44:32;;;;;;;14.73;6.40;;;5.10;99.90;;;;;;5028523;28;20206;-65
2024/01/14 12:47:04;;;;;;;11.20;5.70;;;5.00;99.90;;;;;;5028653;28;20603;-65
2024/01/14 12:49:33;;;;;;;13.03;5.63;;;4.90;99.90;;;;;;5028818;28;20209;-65
2024/01/14 12:52:05;;;;;;;9.10;4.87;;;4.90;99.90;;;;;;5028435;28;20226;-65
2024/01/14 12:54:34;;;;;;;12.43;5.90;;;4.90;99.90;;;;;;5028619;28;20661;-66
2024/01/14 12:57:04;;;;;;;12.93;5.20;;;5.00;99.90;;;;;;5028679;28;20268;-65
2024/01/14 12:59:40;;;;;;;14.50;5.27;;;5.10;99.90;;;;;;5028302;28;20703;-65
2024/01/14 13:02:08;;;;;;;10.20;4.97;;;5.00;99.90;;;;;;5027055;28;20253;-65
2024/01/14 13:04:39;;;;;;;15.00;5.63;;;5.00;99.90;;;;;;5028439;28;20245;-65
2024/01/14 13:07:09;;;;;;;11.27;5.77;;;5.00;99.90;;;;;;5028466;28;20210;-65
2024/01/14 13:09:39;;;;;;;15.27;6.63;;;5.00;99.90;;;;;;5028471;28;20203;-65
2024/01/14 13:12:08;;;;;;;29.80;15.10;;;5.10;99.90;;;;;;5028723;28;20206;-65
2024/01/14 13:14:38;;;;;;;13.53;6.33;;;5.10;99.90;;;;;;5083304;28;20661;-65
2024/01/14 13:17:06;;;;;;;15.43;6.40;;;5.00;99.90;;;;;;5111437;28;20204;-65